Time;durP1;ratioP1;P1;durP2;ratioP2;P2;SDS_P1;SDS_P2;PMS_P1;PMS_P2;Temp;Humidity;BMP_temperature;BMP_pressure;BME280_temperature;BME280_humidity;BME280_pressure;Samples;Min_cycle;Max_cycle;Signal;HPM_P1;HPM_P2
2023/08/24 00:00:50;;;;;;;10.13;4.70;;;16.20;99.90;;;;;;5095598;28;20514;-74
2023/08/24 00:03:16;;;;;;;10.32;5.13;;;16.20;99.90;;;;;;5098056;28;20036;-74
2023/08/24 00:05:42;;;;;;;12.25;5.85;;;16.20;99.90;;;;;;5091579;28;20046;-74
2023/08/24 00:08:08;;;;;;;10.90;5.15;;;16.10;99.90;;;;;;5099112;28;20036;-74
2023/08/24 00:10:35;;;;;;;18.15;6.97;;;16.10;99.90;;;;;;5097510;28;20046;-74
2023/08/24 00:13:01;;;;;;;14.98;6.38;;;16.10;99.90;;;;;;5098787;28;20121;-73
2023/08/24 00:15:27;;;;;;;15.32;6.25;;;16.10;99.90;;;;;;5090405;28;20123;-73
2023/08/24 00:17:52;;;;;;;13.38;5.78;;;16.10;99.90;;;;;;5096640;28;20525;-73
2023/08/24 00:20:19;;;;;;;12.05;5.53;;;16.10;99.90;;;;;;5095103;28;20071;-74
2023/08/24 00:22:46;;;;;;;15.50;6.75;;;16.00;99.90;;;;;;5093026;28;20085;-73
2023/08/24 00:25:12;;;;;;;13.98;5.60;;;16.00;99.90;;;;;;5085096;28;20478;-73
2023/08/24 00:27:38;;;;;;;12.40;5.82;;;16.00;99.90;;;;;;5087524;28;20052;-73
2023/08/24 00:30:06;;;;;;;13.80;6.43;;;16.00;99.90;;;;;;5088709;28;20085;-73
2023/08/24 00:32:34;;;;;;;13.02;5.85;;;16.00;99.90;;;;;;5082966;28;20052;-74
2023/08/24 00:35:06;;;;;;;10.35;5.10;;;16.00;99.90;;;;;;5085423;28;20036;-73
2023/08/24 00:37:33;;;;;;;11.52;4.50;;;16.00;99.90;;;;;;5092954;28;20040;-73
2023/08/24 00:40:04;;;;;;;9.73;4.63;;;15.90;99.90;;;;;;5088203;28;20062;-74
2023/08/24 00:42:31;;;;;;;12.65;5.78;;;16.00;99.90;;;;;;5094840;28;20070;-73
2023/08/24 00:44:58;;;;;;;10.73;5.05;;;16.00;99.90;;;;;;5096302;28;20044;-73
2023/08/24 00:47:24;;;;;;;11.23;5.25;;;16.00;99.90;;;;;;5094883;28;20086;-74
2023/08/24 00:49:50;;;;;;;15.48;5.15;;;16.00;99.90;;;;;;5089121;28;20040;-74
2023/08/24 00:52:18;;;;;;;9.50;5.20;;;16.00;99.90;;;;;;5094638;27;20032;-74
2023/08/24 00:54:44;;;;;;;9.77;5.18;;;16.00;99.90;;;;;;5108251;28;20413;-74
2023/08/24 00:57:11;;;;;;;10.30;4.80;;;16.10;99.90;;;;;;5080596;28;20119;-73
2023/08/24 00:59:37;;;;;;;11.73;5.03;;;16.10;99.90;;;;;;5076703;28;20470;-74
2023/08/24 01:02:03;;;;;;;13.18;5.32;;;16.10;99.90;;;;;;5097030;28;20036;-74
2023/08/24 01:04:28;;;;;;;12.35;5.25;;;16.10;99.90;;;;;;5101767;28;20032;-74
2023/08/24 01:06:54;;;;;;;11.60;5.95;;;16.10;99.90;;;;;;5087292;28;20040;-74
2023/08/24 01:09:21;;;;;;;12.00;5.65;;;16.20;99.90;;;;;;5086110;28;20054;-74
2023/08/24 01:12:12;;;;;;;14.18;6.25;;;16.20;99.90;;;;;;5093704;28;20449;-73
2023/08/24 01:14:59;;;;;;;11.32;4.97;;;16.20;99.90;;;;;;5095626;28;20040;-74
2023/08/24 01:17:28;;;;;;;10.05;5.03;;;16.10;99.90;;;;;;5077359;28;20052;-74
2023/08/24 01:19:55;;;;;;;14.38;5.47;;;16.10;99.90;;;;;;5088902;28;20051;-74
2023/08/24 01:22:27;;;;;;;14.52;5.35;;;16.10;99.90;;;;;;5086534;28;20127;-74
2023/08/24 01:24:56;;;;;;;13.00;5.63;;;16.10;99.90;;;;;;5083918;28;20090;-73
2023/08/24 01:27:22;;;;;;;11.88;6.07;;;16.10;99.90;;;;;;5082603;28;20524;-74
2023/08/24 01:29:48;;;;;;;11.15;5.75;;;16.10;99.90;;;;;;5093553;28;20047;-74
2023/08/24 01:32:14;;;;;;;10.07;5.80;;;16.20;99.90;;;;;;5081148;28;20085;-74
2023/08/24 01:34:40;;;;;;;12.75;5.82;;;16.10;99.90;;;;;;5079782;28;20036;-74
2023/08/24 01:37:07;;;;;;;15.82;6.07;;;16.10;99.90;;;;;;5080799;28;20082;-74
2023/08/24 01:39:47;;;;;;;11.07;5.95;;;16.20;99.90;;;;;;5089634;28;20048;-74
2023/08/24 01:42:20;;;;;;;18.17;6.85;;;16.10;99.90;;;;;;5083644;28;20044;-74
2023/08/24 01:44:49;;;;;;;14.60;5.85;;;16.10;99.90;;;;;;5095364;28;20044;-74
2023/08/24 01:47:17;;;;;;;14.50;6.45;;;16.10;99.90;;;;;;5097625;28;20096;-74
2023/08/24 01:49:43;;;;;;;9.38;6.28;;;16.10;99.90;;;;;;5073832;28;20049;-73
2023/08/24 01:52:10;;;;;;;14.40;7.07;;;16.20;99.90;;;;;;5086468;28;20040;-74
2023/08/24 01:54:36;;;;;;;15.03;7.67;;;16.20;99.90;;;;;;5095322;28;20121;-74
2023/08/24 01:57:04;;;;;;;15.55;6.97;;;16.20;99.90;;;;;;5092344;28;20270;-73
2023/08/24 01:59:29;;;;;;;;;;;16.20;99.90;;;;;;5075715;28;20045;-73
2023/08/24 02:01:55;;;;;;;12.02;5.90;;;16.30;99.90;;;;;;5101211;28;19927;-74
2023/08/24 02:04:20;;;;;;;17.77;6.88;;;16.20;99.90;;;;;;5112369;28;20140;-74
2023/08/24 02:06:46;;;;;;;11.77;6.32;;;16.20;99.90;;;;;;5083635;28;20087;-73
2023/08/24 02:09:12;;;;;;;11.88;6.80;;;16.20;99.90;;;;;;5120737;27;20036;-74
2023/08/24 02:11:38;;;;;;;13.48;7.45;;;16.20;99.90;;;;;;5092258;28;20078;-74
2023/08/24 02:14:04;;;;;;;12.40;6.47;;;16.20;99.90;;;;;;5094544;28;20052;-74
2023/08/24 02:16:30;;;;;;;11.55;6.75;;;16.20;99.90;;;;;;5079120;28;20048;-74
2023/08/24 02:18:56;;;;;;;18.05;6.55;;;16.20;99.90;;;;;;5093547;28;20048;-74
2023/08/24 02:21:21;;;;;;;11.55;6.30;;;16.20;99.90;;;;;;5099597;28;20044;-74
2023/08/24 02:23:47;;;;;;;12.55;7.38;;;16.20;99.90;;;;;;5092173;28;20036;-75
2023/08/24 02:26:16;;;;;;;15.55;7.63;;;16.20;99.90;;;;;;5098041;28;20093;-75
2023/08/24 02:28:41;;;;;;;12.07;7.13;;;16.30;99.90;;;;;;5079364;28;20052;-74
2023/08/24 02:31:07;;;;;;;18.45;7.45;;;16.30;99.90;;;;;;5082585;28;20079;-74
2023/08/24 02:33:33;;;;;;;11.68;6.85;;;16.30;99.90;;;;;;5087662;28;20127;-74
2023/08/24 02:35:59;;;;;;;14.68;7.18;;;16.30;99.90;;;;;;5086609;28;20047;-74
2023/08/24 02:38:24;;;;;;;18.55;7.38;;;16.30;99.90;;;;;;5093037;28;20039;-74
2023/08/24 02:41:03;;;;;;;12.52;6.75;;;16.30;99.90;;;;;;5077944;28;20055;-75
2023/08/24 02:43:28;;;;;;;14.13;7.18;;;16.30;99.90;;;;;;5098954;28;20397;-74
2023/08/24 02:45:54;;;;;;;12.75;6.63;;;16.40;99.90;;;;;;5091867;28;20072;-74
2023/08/24 02:48:20;;;;;;;12.38;6.93;;;16.40;99.90;;;;;;5078104;28;20075;-75
2023/08/24 02:50:48;;;;;;;19.98;6.15;;;16.40;99.90;;;;;;5084893;28;20447;-75
2023/08/24 02:53:14;;;;;;;10.98;6.43;;;16.40;99.90;;;;;;5077554;28;20410;-74
2023/08/24 02:55:39;;;;;;;12.30;6.90;;;16.40;99.90;;;;;;5078579;28;20044;-75
2023/08/24 02:58:05;;;;;;;13.07;7.22;;;16.40;99.90;;;;;;5075940;28;20040;-74
2023/08/24 03:00:32;;;;;;;11.35;6.18;;;16.50;99.90;;;;;;5105778;28;20494;-74
2023/08/24 03:02:58;;;;;;;16.67;6.72;;;16.50;99.90;;;;;;5084873;28;20033;-74
2023/08/24 03:05:24;;;;;;;15.07;6.60;;;16.50;99.90;;;;;;5083242;28;20581;-74
2023/08/24 03:07:50;;;;;;;13.30;6.93;;;16.50;99.90;;;;;;5091910;28;20068;-75
2023/08/24 03:10:15;;;;;;;13.65;7.10;;;16.50;99.90;;;;;;5083328;28;20036;-74
2023/08/24 03:12:41;;;;;;;11.18;6.55;;;16.50;99.90;;;;;;5083914;28;20103;-75
2023/08/24 03:15:07;;;;;;;22.98;8.52;;;16.50;99.90;;;;;;5080789;28;20044;-75
2023/08/24 03:17:32;;;;;;;14.23;7.55;;;16.50;99.90;;;;;;5081713;28;20097;-74
2023/08/24 03:19:58;;;;;;;18.90;7.85;;;16.50;99.90;;;;;;5087307;28;20056;-74
2023/08/24 03:22:23;;;;;;;11.40;6.55;;;16.50;99.90;;;;;;5075470;28;20104;-74
2023/08/24 03:24:49;;;;;;;14.07;6.75;;;16.50;99.90;;;;;;5083995;28;20032;-74
2023/08/24 03:27:15;;;;;;;11.98;7.00;;;16.50;99.90;;;;;;5071887;28;20143;-74
2023/08/24 03:29:40;;;;;;;7.32;6.20;;;16.50;99.90;;;;;;5089453;28;20032;-74
2023/08/24 03:32:06;;;;;;;10.27;6.80;;;16.50;99.90;;;;;;5072973;28;20098;-74
2023/08/24 03:34:32;;;;;;;14.63;5.85;;;16.50;99.90;;;;;;5086011;28;20090;-74
2023/08/24 03:36:57;;;;;;;14.35;6.53;;;16.50;99.90;;;;;;5086231;28;20044;-75
2023/08/24 03:39:23;;;;;;;12.85;6.60;;;16.40;99.90;;;;;;5085424;28;20036;-74
2023/08/24 03:41:48;;;;;;;13.02;6.63;;;16.40;99.90;;;;;;5081192;28;20524;-74
2023/08/24 03:44:14;;;;;;;14.52;6.55;;;16.40;99.90;;;;;;5086593;28;20039;-74
2023/08/24 03:46:40;;;;;;;12.00;6.25;;;16.40;99.90;;;;;;5089761;28;20036;-74
2023/08/24 03:49:05;;;;;;;13.43;6.55;;;16.40;99.90;;;;;;5090102;28;20047;-73
2023/08/24 03:51:31;;;;;;;15.98;7.43;;;16.40;99.90;;;;;;5073332;28;20071;-73
2023/08/24 03:53:57;;;;;;;18.52;8.27;;;16.40;99.90;;;;;;5081405;28;20044;-74
2023/08/24 03:56:22;;;;;;;12.20;7.43;;;16.40;99.90;;;;;;5087163;28;20569;-73
2023/08/24 03:58:49;;;;;;;13.27;7.40;;;16.40;99.90;;;;;;5090432;28;20040;-73
2023/08/24 04:01:15;;;;;;;15.93;7.55;;;16.40;99.90;;;;;;5089744;28;20036;-74
2023/08/24 04:03:41;;;;;;;12.23;7.45;;;16.40;99.90;;;;;;5083127;28;20041;-74
2023/08/24 04:06:07;;;;;;;17.13;7.60;;;16.40;99.90;;;;;;5073708;28;20045;-74
2023/08/24 04:08:33;;;;;;;15.05;8.18;;;16.40;99.90;;;;;;5081687;28;20051;-74
2023/08/24 04:10:58;;;;;;;12.80;7.60;;;16.40;99.90;;;;;;5084920;28;20467;-74
2023/08/24 04:13:24;;;;;;;14.23;8.25;;;16.40;99.90;;;;;;5091701;28;20516;-75
2023/08/24 04:15:50;;;;;;;11.25;7.55;;;16.40;99.90;;;;;;5090262;28;20043;-74
2023/08/24 04:18:15;;;;;;;14.50;7.80;;;16.40;99.90;;;;;;5095883;28;20068;-74
2023/08/24 04:20:41;;;;;;;12.57;7.30;;;16.40;99.90;;;;;;5084946;28;20083;-74
2023/08/24 04:23:06;;;;;;;16.77;8.45;;;16.40;99.90;;;;;;5096081;28;20028;-74
2023/08/24 04:25:32;;;;;;;14.50;7.80;;;16.40;99.90;;;;;;5095444;28;20040;-75
2023/08/24 04:27:58;;;;;;;11.98;7.40;;;16.30;99.90;;;;;;5083285;28;20040;-74
2023/08/24 04:30:23;;;;;;;17.25;7.80;;;16.30;99.90;;;;;;5091074;28;20045;-74
2023/08/24 04:32:49;;;;;;;10.23;7.50;;;16.30;99.90;;;;;;5087846;28;20042;-75
2023/08/24 04:35:15;;;;;;;15.98;8.00;;;16.30;99.90;;;;;;5095553;28;20044;-75
2023/08/24 04:37:40;;;;;;;14.00;7.30;;;16.30;99.90;;;;;;5095812;28;20131;-74
2023/08/24 04:40:11;;;;;;;17.08;8.77;;;16.30;99.90;;;;;;5094238;28;20060;-75
2023/08/24 04:42:36;;;;;;;16.02;8.93;;;16.30;99.90;;;;;;5089708;28;20499;-74
2023/08/24 04:45:02;;;;;;;16.83;7.97;;;16.20;99.90;;;;;;5091696;28;20074;-75
2023/08/24 04:47:28;;;;;;;13.73;7.88;;;16.20;99.90;;;;;;5094957;28;20036;-74
2023/08/24 04:49:53;;;;;;;15.30;8.38;;;16.20;99.90;;;;;;5079836;28;20048;-74
2023/08/24 04:52:19;;;;;;;16.52;9.07;;;16.20;99.90;;;;;;5092872;28;20036;-74
2023/08/24 04:54:45;;;;;;;16.10;8.48;;;16.20;99.90;;;;;;5090508;28;20162;-74
2023/08/24 04:57:10;;;;;;;19.40;8.77;;;16.20;99.90;;;;;;5092902;28;20090;-74
2023/08/24 04:59:36;;;;;;;16.45;8.15;;;16.20;99.90;;;;;;5080654;28;20036;-74
2023/08/24 05:02:01;;;;;;;15.45;8.35;;;16.10;99.90;;;;;;5093812;28;20040;-74
2023/08/24 05:04:27;;;;;;;14.20;8.25;;;16.10;99.90;;;;;;5108324;27;20052;-74
2023/08/24 05:06:53;;;;;;;11.65;7.35;;;16.10;99.90;;;;;;5123800;27;20048;-73
2023/08/24 05:09:18;;;;;;;23.38;8.43;;;16.10;99.90;;;;;;5076408;28;20037;-74
2023/08/24 05:11:44;;;;;;;20.85;8.55;;;16.10;99.90;;;;;;5099723;28;20089;-75
2023/08/24 05:14:10;;;;;;;15.65;7.55;;;16.20;99.90;;;;;;5096691;28;20036;-75
2023/08/24 05:16:35;;;;;;;16.45;8.30;;;16.20;99.90;;;;;;5093488;28;20040;-75
2023/08/24 05:19:03;;;;;;;17.92;7.90;;;16.20;99.90;;;;;;5089306;28;20105;-74
2023/08/24 05:21:28;;;;;;;13.93;8.27;;;16.30;99.90;;;;;;5083710;28;20053;-74
2023/08/24 05:23:54;;;;;;;16.55;7.32;;;16.30;99.90;;;;;;5096992;28;20054;-74
2023/08/24 05:26:22;;;;;;;13.13;7.57;;;16.30;99.90;;;;;;5099074;28;20044;-74
2023/08/24 05:28:48;;;;;;;;;;;16.30;99.90;;;;;;5106210;28;20044;-74
2023/08/24 05:31:13;;;;;;;11.50;7.43;;;16.30;99.90;;;;;;5084915;28;19966;-75
2023/08/24 05:33:39;;;;;;;20.98;8.57;;;16.30;99.90;;;;;;5090576;28;20101;-74
2023/08/24 05:36:04;;;;;;;17.77;8.43;;;16.40;99.90;;;;;;5091440;28;20067;-73
2023/08/24 05:38:30;;;;;;;12.43;7.07;;;16.40;99.90;;;;;;5086856;28;20052;-73
2023/08/24 05:40:56;;;;;;;15.65;8.13;;;16.40;99.90;;;;;;5088851;28;20608;-74
2023/08/24 05:43:21;;;;;;;17.55;8.13;;;16.40;99.90;;;;;;5094484;28;20036;-73
2023/08/24 05:45:48;;;;;;;18.92;8.00;;;16.50;99.90;;;;;;5088672;28;20041;-74
2023/08/24 05:48:14;;;;;;;17.02;8.32;;;16.50;99.90;;;;;;5087780;28;20051;-73
2023/08/24 05:50:44;;;;;;;12.88;7.38;;;16.70;99.90;;;;;;5075746;28;20051;-74
2023/08/24 05:53:10;;;;;;;11.95;7.45;;;16.60;99.90;;;;;;5086822;28;20185;-73
2023/08/24 05:55:36;;;;;;;18.58;7.63;;;16.70;99.90;;;;;;5091724;28;20045;-74
2023/08/24 05:58:02;;;;;;;14.73;7.47;;;16.70;99.90;;;;;;5079571;28;20056;-73
2023/08/24 06:00:29;;;;;;;15.18;7.00;;;16.70;99.90;;;;;;5092093;28;20040;-74
2023/08/24 06:02:55;;;;;;;14.20;7.35;;;16.70;99.90;;;;;;5094213;28;20058;-74
2023/08/24 06:05:20;;;;;;;18.60;7.95;;;16.80;99.90;;;;;;5070156;28;20035;-74
2023/08/24 06:07:46;;;;;;;18.35;8.43;;;16.80;99.90;;;;;;5093392;28;20093;-74
2023/08/24 06:10:15;;;;;;;16.95;8.00;;;16.90;99.90;;;;;;5084489;28;20040;-74
2023/08/24 06:12:40;;;;;;;18.42;8.20;;;17.00;99.90;;;;;;5094247;28;20466;-74
2023/08/24 06:15:09;;;;;;;15.80;7.88;;;17.10;99.90;;;;;;5089341;28;20493;-74
2023/08/24 06:17:35;;;;;;;13.50;6.95;;;17.20;99.90;;;;;;5076918;28;20048;-74
2023/08/24 06:20:03;;;;;;;18.33;7.78;;;17.30;99.90;;;;;;5090829;27;20066;-74
2023/08/24 06:22:29;;;;;;;17.73;6.88;;;17.50;99.90;;;;;;5091302;28;20070;-74
2023/08/24 06:24:59;;;;;;;15.02;6.43;;;17.90;99.90;;;;;;5085965;28;20092;-74
2023/08/24 06:27:25;;;;;;;14.30;6.78;;;18.20;99.90;;;;;;5095380;28;20040;-74
2023/08/24 06:29:51;;;;;;;11.85;5.80;;;18.60;99.90;;;;;;5086255;28;20131;-74
2023/08/24 06:32:16;;;;;;;11.55;6.40;;;19.00;99.90;;;;;;5086337;28;20075;-75
2023/08/24 06:34:42;;;;;;;14.50;5.78;;;19.40;99.90;;;;;;5091398;28;20054;-75
2023/08/24 06:37:08;;;;;;;11.80;5.45;;;19.60;99.90;;;;;;5081976;28;20028;-75
2023/08/24 06:39:33;;;;;;;13.95;6.15;;;19.90;99.90;;;;;;5086319;28;20098;-75
2023/08/24 06:41:59;;;;;;;11.77;5.57;;;20.10;99.90;;;;;;5091914;28;20106;-75
2023/08/24 06:44:25;;;;;;;15.70;5.43;;;20.20;99.90;;;;;;5074468;28;20044;-75
2023/08/24 06:46:50;;;;;;;8.48;4.88;;;20.10;99.90;;;;;;5090162;28;20028;-74
2023/08/24 06:49:16;;;;;;;9.07;4.78;;;20.00;99.90;;;;;;5075509;28;20047;-75
2023/08/24 06:51:42;;;;;;;12.07;5.40;;;20.00;99.90;;;;;;5080105;28;20043;-75
2023/08/24 06:54:07;;;;;;;9.45;4.82;;;20.10;99.90;;;;;;5074836;28;20080;-74
2023/08/24 06:56:33;;;;;;;9.75;4.82;;;20.20;99.90;;;;;;5083498;28;20071;-74
2023/08/24 06:58:58;;;;;;;7.63;3.83;;;20.40;99.90;;;;;;5085814;28;20039;-73
2023/08/24 07:01:25;;;;;;;11.80;4.72;;;20.40;99.90;;;;;;5089951;28;20088;-74
2023/08/24 07:03:51;;;;;;;10.47;4.37;;;20.40;99.90;;;;;;5076558;28;20089;-74
2023/08/24 07:06:17;;;;;;;11.02;4.57;;;20.40;99.90;;;;;;5087260;28;20401;-73
2023/08/24 07:08:43;;;;;;;12.23;4.82;;;20.30;99.90;;;;;;5090047;28;20036;-74
2023/08/24 07:11:08;;;;;;;10.43;4.97;;;20.20;99.90;;;;;;5088333;28;20439;-75
2023/08/24 07:13:34;;;;;;;10.40;4.78;;;20.00;99.90;;;;;;5105315;27;20043;-74
2023/08/24 07:16:00;;;;;;;11.00;4.30;;;20.00;99.90;;;;;;5112331;27;20036;-74
2023/08/24 07:18:26;;;;;;;12.52;4.10;;;20.00;99.90;;;;;;5092666;28;20513;-74
2023/08/24 07:20:52;;;;;;;10.43;4.40;;;20.00;99.90;;;;;;5075016;28;20044;-74
2023/08/24 07:23:18;;;;;;;8.77;4.35;;;20.10;99.90;;;;;;5091054;28;20044;-74
2023/08/24 07:25:43;;;;;;;12.95;4.88;;;20.10;99.90;;;;;;5082423;28;20051;-75
2023/08/24 07:28:09;;;;;;;13.07;4.25;;;20.20;99.90;;;;;;5092102;28;20076;-75
2023/08/24 07:30:35;;;;;;;9.73;4.07;;;20.30;99.90;;;;;;5082872;28;20050;-75
2023/08/24 07:33:03;;;;;;;10.90;4.18;;;20.40;99.90;;;;;;5083207;28;20039;-74
2023/08/24 07:35:28;;;;;;;11.95;4.18;;;20.40;99.90;;;;;;5086796;28;20482;-74
2023/08/24 07:37:54;;;;;;;7.72;3.83;;;20.50;99.90;;;;;;5091449;28;20048;-74
2023/08/24 07:40:20;;;;;;;9.10;3.80;;;20.50;99.90;;;;;;5082820;28;20132;-74
2023/08/24 07:42:47;;;;;;;13.50;3.90;;;20.60;99.90;;;;;;5087886;28;20061;-75
2023/08/24 07:45:16;;;;;;;11.50;4.00;;;20.70;99.90;;;;;;5081596;28;20479;-74
2023/08/24 07:47:42;;;;;;;12.00;4.00;;;20.80;99.90;;;;;;5109421;28;20071;-75
2023/08/24 07:50:08;;;;;;;10.50;4.03;;;20.90;99.90;;;;;;5085354;28;20040;-74
2023/08/24 07:52:34;;;;;;;7.80;3.65;;;20.90;99.90;;;;;;5106687;28;20044;-74
2023/08/24 07:55:03;;;;;;;9.18;3.92;;;21.00;99.90;;;;;;5105895;28;20122;-75
2023/08/24 07:57:28;;;;;;;6.53;3.60;;;21.10;99.90;;;;;;5085154;28;20054;-75
2023/08/24 07:59:54;;;;;;;11.32;5.53;;;21.20;99.90;;;;;;5075118;28;20052;-75
2023/08/24 08:02:20;;;;;;;10.70;5.25;;;21.30;99.90;;;;;;5092618;28;20075;-75
2023/08/24 08:04:46;;;;;;;12.23;4.88;;;21.40;99.90;;;;;;5093274;28;20445;-75
2023/08/24 08:07:12;;;;;;;11.70;5.88;;;21.50;99.90;;;;;;5091147;28;20059;-75
2023/08/24 08:09:38;;;;;;;11.07;5.68;;;21.60;99.90;;;;;;5067633;28;20056;-74
2023/08/24 08:12:04;;;;;;;11.88;5.93;;;21.70;99.90;;;;;;5091008;28;20505;-75
2023/08/24 08:14:30;;;;;;;12.75;6.22;;;21.80;99.90;;;;;;5097216;28;20067;-74
2023/08/24 08:16:58;;;;;;;12.63;5.40;;;21.90;99.90;;;;;;5094192;28;20089;-73
2023/08/24 08:19:26;;;;;;;11.13;4.88;;;21.90;99.90;;;;;;5111773;28;20443;-74
2023/08/24 08:21:52;;;;;;;8.88;4.85;;;21.90;99.90;;;;;;5090149;27;20055;-74
2023/08/24 08:24:18;;;;;;;13.50;4.90;;;22.00;99.90;;;;;;5114387;27;20036;-74
2023/08/24 08:26:43;;;;;;;7.53;4.80;;;22.10;99.90;;;;;;5091381;28;20044;-76
2023/08/24 08:29:09;;;;;;;13.43;5.50;;;22.30;99.90;;;;;;5080333;28;20085;-75
2023/08/24 08:31:35;;;;;;;11.90;6.07;;;22.50;99.90;;;;;;5101289;28;20051;-75
2023/08/24 08:34:01;;;;;;;16.83;5.68;;;22.60;99.90;;;;;;5094077;28;20397;-75
2023/08/24 08:36:27;;;;;;;8.48;5.53;;;22.60;99.90;;;;;;5116453;28;20031;-75
2023/08/24 08:38:52;;;;;;;9.52;4.80;;;22.70;99.90;;;;;;5099244;28;20066;-75
2023/08/24 08:41:22;;;;;;;12.60;5.22;;;22.80;99.90;;;;;;5074357;28;20152;-75
2023/08/24 08:43:49;;;;;;;9.88;5.22;;;22.90;99.90;;;;;;5084088;28;20040;-76
2023/08/24 08:46:16;;;;;;;7.88;4.93;;;22.90;99.90;;;;;;5090133;28;20039;-74
2023/08/24 08:48:43;;;;;;;7.63;4.70;;;22.90;99.90;;;;;;5093010;28;20051;-75
2023/08/24 08:51:10;;;;;;;10.35;4.38;;;23.00;99.90;;;;;;5091623;28;20036;-74
2023/08/24 08:53:36;;;;;;;8.02;4.10;;;23.10;99.90;;;;;;5091517;28;20048;-75
2023/08/24 08:56:05;;;;;;;9.60;4.65;;;23.20;99.90;;;;;;5083170;28;20048;-74
2023/08/24 08:58:36;;;;;;;13.20;4.57;;;23.40;99.90;;;;;;5091919;28;20409;-73
2023/08/24 09:01:03;;;;;;;11.38;4.20;;;23.50;99.90;;;;;;5074700;28;20709;-77
2023/08/24 09:03:31;;;;;;;7.85;4.22;;;23.50;99.90;;;;;;5087698;28;20040;-75
2023/08/24 09:05:57;;;;;;;10.70;3.90;;;23.40;99.90;;;;;;5091495;28;20497;-75
2023/08/24 09:08:25;;;;;;;16.40;3.88;;;23.40;99.90;;;;;;5094027;28;20451;-75
2023/08/24 09:10:51;;;;;;;10.32;4.10;;;23.30;99.90;;;;;;5100542;28;20098;-75
2023/08/24 09:13:17;;;;;;;8.10;3.85;;;23.20;99.90;;;;;;5082926;28;20461;-74
2023/08/24 09:15:43;;;;;;;10.60;4.03;;;23.10;99.90;;;;;;5094373;28;20040;-74
2023/08/24 09:18:09;;;;;;;7.07;4.15;;;23.10;99.90;;;;;;5102501;28;20390;-74
2023/08/24 09:20:35;;;;;;;6.93;3.72;;;23.00;99.90;;;;;;5095976;28;20077;-75
2023/08/24 09:23:02;;;;;;;6.50;3.92;;;23.00;99.90;;;;;;5083517;28;20036;-76
2023/08/24 09:25:28;;;;;;;10.02;4.05;;;23.10;99.90;;;;;;5087831;28;20066;-74
2023/08/24 09:27:58;;;;;;;7.07;3.80;;;23.20;99.90;;;;;;5077271;28;20139;-75
2023/08/24 09:30:30;;;;;;;9.55;4.03;;;23.20;99.90;;;;;;5095657;28;20043;-76
2023/08/24 09:32:55;;;;;;;10.38;4.88;;;23.20;99.90;;;;;;5095882;28;20036;-75
2023/08/24 09:35:21;;;;;;;7.35;3.80;;;23.10;99.90;;;;;;5083353;28;20514;-75
2023/08/24 09:37:49;;;;;;;9.32;4.25;;;23.10;99.90;;;;;;5091888;28;20032;-76
2023/08/24 09:40:15;;;;;;;9.32;4.05;;;23.10;99.90;;;;;;5094482;28;20036;-75
2023/08/24 09:42:44;;;;;;;9.77;4.50;;;23.10;99.90;;;;;;5089441;28;20098;-75
2023/08/24 09:45:14;;;;;;;7.57;5.07;;;23.00;99.90;;;;;;5094909;28;20477;-75
2023/08/24 09:47:44;;;;;;;9.98;5.72;;;23.00;99.90;;;;;;5102312;28;20557;-76
2023/08/24 09:50:10;;;;;;;14.85;6.20;;;22.90;99.90;;;;;;5097346;28;20047;-75
2023/08/24 09:52:37;;;;;;;13.65;6.57;;;22.80;99.90;;;;;;5101674;28;20071;-75
2023/08/24 09:55:07;;;;;;;10.50;5.70;;;22.70;99.90;;;;;;5043940;28;20067;-76
2023/08/24 09:57:39;;;;;;;8.82;5.10;;;22.60;99.90;;;;;;5084537;28;20123;-75
2023/08/24 10:00:15;;;;;;;14.35;6.45;;;22.50;99.90;;;;;;5093771;28;20043;-76
2023/08/24 10:02:50;;;;;;;9.48;5.28;;;22.50;99.90;;;;;;5104159;28;20440;-75
2023/08/24 10:05:20;;;;;;;9.25;4.78;;;22.50;99.90;;;;;;5093391;28;20101;-75
2023/08/24 10:07:56;;;;;;;8.60;4.78;;;22.50;99.90;;;;;;5094304;28;20063;-75
2023/08/24 10:10:25;;;;;;;12.75;4.70;;;22.50;99.90;;;;;;5089226;28;20052;-75
2023/08/24 10:12:57;;;;;;;9.50;5.43;;;22.50;99.90;;;;;;5091926;28;20158;-75
2023/08/24 10:15:24;;;;;;;8.05;5.13;;;22.50;99.90;;;;;;5073979;28;20116;-75
2023/08/24 10:17:51;;;;;;;13.00;5.82;;;22.50;99.90;;;;;;5080470;28;20032;-76
2023/08/24 10:20:19;;;;;;;10.27;5.43;;;22.40;99.90;;;;;;5088860;28;20052;-75
2023/08/24 10:22:47;;;;;;;10.52;6.45;;;22.40;99.90;;;;;;5091141;28;20089;-75
2023/08/24 10:25:13;;;;;;;11.80;6.25;;;22.40;99.90;;;;;;5111010;27;20406;-75
2023/08/24 10:27:43;;;;;;;12.40;6.50;;;22.30;99.90;;;;;;5087345;28;20523;-75
2023/08/24 10:30:13;;;;;;;12.52;6.45;;;22.30;99.90;;;;;;5074143;28;20052;-75
2023/08/24 10:32:41;;;;;;;12.73;5.97;;;22.20;99.90;;;;;;5090800;28;20512;-75
2023/08/24 10:35:08;;;;;;;10.77;5.65;;;22.20;99.90;;;;;;5092127;28;20040;-75
2023/08/24 10:37:34;;;;;;;10.13;5.95;;;22.20;99.90;;;;;;5087444;28;20064;-75
2023/08/24 10:40:00;;;;;;;12.25;6.68;;;22.10;99.90;;;;;;5087193;28;20068;-75
2023/08/24 10:42:26;;;;;;;13.90;6.03;;;22.10;99.90;;;;;;5092140;28;20043;-75
2023/08/24 10:44:52;;;;;;;11.90;6.20;;;22.00;99.90;;;;;;5085646;28;20436;-75
2023/08/24 10:47:20;;;;;;;10.82;6.35;;;22.00;99.90;;;;;;5073771;28;20037;-76
2023/08/24 10:49:59;;;;;;;12.55;8.45;;;22.00;99.90;;;;;;5087120;28;20058;-75
2023/08/24 10:52:27;;;;;;;11.23;7.00;;;22.00;99.90;;;;;;5084392;28;20040;-76
2023/08/24 10:54:54;;;;;;;12.25;6.80;;;21.90;99.90;;;;;;5066874;28;20040;-76
2023/08/24 10:57:31;;;;;;;9.93;5.97;;;21.90;99.90;;;;;;5081838;28;20044;-76
2023/08/24 11:00:25;;;;;;;12.02;6.78;;;21.90;99.90;;;;;;5077071;28;20101;-76
2023/08/24 11:02:52;;;;;;;10.93;6.95;;;21.90;99.90;;;;;;5084505;28;20138;-75
2023/08/24 11:05:29;;;;;;;16.33;7.65;;;21.90;99.90;;;;;;5083191;28;20075;-75
2023/08/24 11:07:59;;;;;;;11.63;6.18;;;21.90;99.90;;;;;;5081280;28;20718;-75
2023/08/24 11:10:34;;;;;;;15.77;8.25;;;21.90;99.90;;;;;;5105650;28;20050;-75
2023/08/24 11:13:04;;;;;;;10.48;7.68;;;21.90;99.90;;;;;;5086507;28;20040;-75
2023/08/24 11:15:39;;;;;;;12.88;8.43;;;21.90;99.90;;;;;;5084030;28;20055;-74
2023/08/24 11:18:39;;;;;;;15.27;8.75;;;21.90;99.90;;;;;;5097089;28;20506;-74
2023/08/24 11:21:05;;;;;;;;;;;21.80;99.90;;;;;;5088566;28;20051;-75
2023/08/24 11:23:32;;;;;;;15.98;7.88;;;21.80;99.90;;;;;;5079862;28;19920;-74
2023/08/24 11:25:59;;;;;;;14.02;8.35;;;21.80;99.90;;;;;;5095737;28;20044;-74
2023/08/24 11:28:31;;;;;;;15.18;8.48;;;21.90;99.90;;;;;;5090445;28;20044;-75
2023/08/24 11:30:58;;;;;;;15.25;8.25;;;21.90;99.90;;;;;;5085968;28;20036;-75
2023/08/24 11:33:29;;;;;;;11.05;8.07;;;21.80;99.90;;;;;;5101930;28;20048;-75
2023/08/24 11:35:55;;;;;;;13.18;8.90;;;21.80;99.90;;;;;;5085793;28;20537;-74
2023/08/24 11:38:21;;;;;;;11.88;8.40;;;21.90;99.90;;;;;;5090663;28;20036;-76
2023/08/24 11:40:46;;;;;;;15.70;8.55;;;21.90;99.90;;;;;;5086081;28;20043;-75
2023/08/24 11:43:12;;;;;;;19.27;8.23;;;21.90;99.90;;;;;;5092182;28;20043;-75
2023/08/24 11:45:42;;;;;;;12.95;7.95;;;21.90;99.90;;;;;;5087897;28;20044;-76
2023/08/24 11:48:07;;;;;;;12.68;7.75;;;22.00;99.90;;;;;;5086495;28;20048;-74
2023/08/24 11:50:36;;;;;;;12.07;8.82;;;22.00;99.90;;;;;;5090240;28;20127;-75
2023/08/24 11:53:02;;;;;;;13.02;8.32;;;22.10;99.90;;;;;;5068036;28;20040;-75
2023/08/24 11:55:28;;;;;;;21.13;8.52;;;22.20;99.90;;;;;;5093857;28;20073;-74
2023/08/24 11:57:55;;;;;;;10.45;7.63;;;22.30;99.90;;;;;;5082088;28;20040;-74
2023/08/24 12:00:22;;;;;;;15.88;8.02;;;22.40;99.90;;;;;;5085770;28;20046;-75
2023/08/24 12:02:48;;;;;;;12.27;7.60;;;22.40;99.90;;;;;;5077204;28;20053;-74
2023/08/24 12:05:25;;;;;;;13.20;7.80;;;22.50;99.90;;;;;;5105342;28;20043;-75
2023/08/24 12:07:53;;;;;;;13.50;7.25;;;22.50;99.90;;;;;;5117414;28;20100;-74
2023/08/24 12:10:19;;;;;;;13.68;7.80;;;22.60;99.90;;;;;;5092023;28;20054;-74
2023/08/24 12:12:44;;;;;;;15.05;8.00;;;22.60;99.90;;;;;;5081175;28;20407;-74
2023/08/24 12:15:20;;;;;;;13.30;7.82;;;22.60;99.90;;;;;;5089045;28;20054;-75
2023/08/24 12:17:47;;;;;;;11.05;7.60;;;22.70;99.90;;;;;;5111894;28;20032;-75
2023/08/24 12:20:21;;;;;;;12.13;7.82;;;22.70;99.90;;;;;;5083622;28;20044;-76
2023/08/24 12:22:51;;;;;;;15.25;7.38;;;22.70;99.90;;;;;;5084444;28;20046;-74
2023/08/24 12:25:17;;;;;;;18.77;7.45;;;22.70;99.90;;;;;;5076031;28;20052;-74
2023/08/24 12:27:43;;;;;;;18.25;7.25;;;22.70;99.90;;;;;;5087689;28;20043;-75
2023/08/24 12:30:11;;;;;;;12.20;8.05;;;22.70;99.90;;;;;;5090702;28;20040;-75
2023/08/24 12:32:50;;;;;;;11.93;7.10;;;22.70;99.90;;;;;;5081847;28;20063;-76
2023/08/24 12:35:16;;;;;;;15.07;7.45;;;22.70;99.90;;;;;;5094384;28;20485;-74
2023/08/24 12:37:41;;;;;;;10.85;7.18;;;22.70;99.90;;;;;;5082620;28;20096;-73